sensor_id;sensor_type;location;lat;lon;timestamp;pressure;altitude;pressure_sealevel;temperature;humidity
57442;BME280;43284;47.042;15.498;2023-04-27T00:01:24;97342.06;;;5.94;79.52
57442;BME280;43284;47.042;15.498;2023-04-27T00:03:50;97343.75;;;5.97;79.05
57442;BME280;43284;47.042;15.498;2023-04-27T00:06:15;97342.72;;;6.03;75.79
57442;BME280;43284;47.042;15.498;2023-04-27T00:08:41;97334.84;;;6.06;75.28
57442;BME280;43284;47.042;15.498;2023-04-27T00:11:06;97331.47;;;6.02;74.81
57442;BME280;43284;47.042;15.498;2023-04-27T00:13:32;97332.41;;;6.00;76.00
57442;BME280;43284;47.042;15.498;2023-04-27T00:15:58;97335.84;;;6.00;75.59
57442;BME280;43284;47.042;15.498;2023-04-27T00:18:27;97332.28;;;6.04;75.14
57442;BME280;43284;47.042;15.498;2023-04-27T00:20:52;97333.16;;;6.03;75.18
57442;BME280;43284;47.042;15.498;2023-04-27T00:23:18;97335.75;;;6.03;75.09
57442;BME280;43284;47.042;15.498;2023-04-27T00:25:43;97330.56;;;6.03;75.15
57442;BME280;43284;47.042;15.498;2023-04-27T00:28:09;97332.25;;;6.06;75.87
57442;BME280;43284;47.042;15.498;2023-04-27T00:30:34;97331.34;;;6.07;75.97
57442;BME280;43284;47.042;15.498;2023-04-27T00:33:00;97324.50;;;6.04;76.00
57442;BME280;43284;47.042;15.498;2023-04-27T00:35:25;97327.91;;;6.06;76.69
57442;BME280;43284;47.042;15.498;2023-04-27T00:37:52;97321.81;;;6.07;76.19
57442;BME280;43284;47.042;15.498;2023-04-27T00:40:19;97326.13;;;6.08;75.51
57442;BME280;43284;47.042;15.498;2023-04-27T00:42:45;97326.13;;;6.08;76.22
57442;BME280;43284;47.042;15.498;2023-04-27T00:45:11;97326.97;;;6.09;77.05
57442;BME280;43284;47.042;15.498;2023-04-27T00:47:37;97326.16;;;6.07;76.70
57442;BME280;43284;47.042;15.498;2023-04-27T00:50:03;97329.53;;;6.10;76.11
57442;BME280;43284;47.042;15.498;2023-04-27T00:52:33;97331.31;;;6.08;74.54
57442;BME280;43284;47.042;15.498;2023-04-27T00:55:01;97325.34;;;6.05;74.26
57442;BME280;43284;47.042;15.498;2023-04-27T00:57:28;97331.38;;;6.05;74.11
57442;BME280;43284;47.042;15.498;2023-04-27T00:59:53;97333.13;;;6.05;74.14
57442;BME280;43284;47.042;15.498;2023-04-27T01:02:19;97329.59;;;6.07;74.26
57442;BME280;43284;47.042;15.498;2023-04-27T01:04:47;97325.31;;;6.06;75.57
57442;BME280;43284;47.042;15.498;2023-04-27T01:07:15;97328.09;;;5.98;76.00
57442;BME280;43284;47.042;15.498;2023-04-27T01:09:40;97326.31;;;6.01;77.45
57442;BME280;43284;47.042;15.498;2023-04-27T01:12:06;97336.66;;;6.02;75.71
57442;BME280;43284;47.042;15.498;2023-04-27T01:14:32;97329.03;;;5.97;74.94
57442;BME280;43284;47.042;15.498;2023-04-27T01:16:57;97333.41;;;5.95;74.96
57442;BME280;43284;47.042;15.498;2023-04-27T01:19:23;97338.59;;;5.95;74.24
57442;BME280;43284;47.042;15.498;2023-04-27T01:21:49;97326.44;;;5.96;73.41
57442;BME280;43284;47.042;15.498;2023-04-27T01:24:14;97326.50;;;5.94;73.51
57442;BME280;43284;47.042;15.498;2023-04-27T01:26:41;97332.47;;;5.98;74.88
57442;BME280;43284;47.042;15.498;2023-04-27T01:29:06;97338.59;;;5.95;74.59
57442;BME280;43284;47.042;15.498;2023-04-27T01:31:32;97341.94;;;5.99;76.03
57442;BME280;43284;47.042;15.498;2023-04-27T01:33:57;97333.31;;;5.98;75.91
57442;BME280;43284;47.042;15.498;2023-04-27T01:36:23;97335.97;;;5.97;75.29
57442;BME280;43284;47.042;15.498;2023-04-27T01:38:48;97345.44;;;5.98;77.12
57442;BME280;43284;47.042;15.498;2023-04-27T01:41:13;97349.72;;;5.99;77.24
57442;BME280;43284;47.042;15.498;2023-04-27T01:43:39;97345.41;;;6.00;78.04
57442;BME280;43284;47.042;15.498;2023-04-27T01:46:13;97341.94;;;5.99;77.03
57442;BME280;43284;47.042;15.498;2023-04-27T01:48:41;97347.13;;;5.99;77.36
57442;BME280;43284;47.042;15.498;2023-04-27T01:51:06;97350.50;;;6.03;78.36
57442;BME280;43284;47.042;15.498;2023-04-27T01:53:32;97348.81;;;6.02;77.07
57442;BME280;43284;47.042;15.498;2023-04-27T01:55:58;97347.22;;;5.96;75.93
57442;BME280;43284;47.042;15.498;2023-04-27T01:58:25;97344.63;;;5.96;75.40
57442;BME280;43284;47.042;15.498;2023-04-27T02:00:50;97346.38;;;5.95;74.56
57442;BME280;43284;47.042;15.498;2023-04-27T02:03:16;97348.97;;;5.95;73.86
57442;BME280;43284;47.042;15.498;2023-04-27T02:05:41;97348.13;;;5.95;73.60
57442;BME280;43284;47.042;15.498;2023-04-27T02:08:07;97353.25;;;5.96;73.06
57442;BME280;43284;47.042;15.498;2023-04-27T02:10:34;97347.25;;;5.94;73.10
57442;BME280;43284;47.042;15.498;2023-04-27T02:13:00;97355.06;;;5.93;74.05
57442;BME280;43284;47.042;15.498;2023-04-27T02:15:25;97353.34;;;5.92;73.34
57442;BME280;43284;47.042;15.498;2023-04-27T02:17:51;97352.59;;;5.88;73.30
57442;BME280;43284;47.042;15.498;2023-04-27T02:20:16;97352.75;;;5.82;74.19
57442;BME280;43284;47.042;15.498;2023-04-27T02:22:42;97357.03;;;5.83;74.58
57442;BME280;43284;47.042;15.498;2023-04-27T02:25:09;97361.47;;;5.80;74.06
57442;BME280;43284;47.042;15.498;2023-04-27T02:27:39;97358.97;;;5.75;75.13
57442;BME280;43284;47.042;15.498;2023-04-27T02:30:07;97359.88;;;5.74;74.71
57442;BME280;43284;47.042;15.498;2023-04-27T02:32:33;97359.06;;;5.72;76.60
57442;BME280;43284;47.042;15.498;2023-04-27T02:34:59;97366.16;;;5.65;77.80
57442;BME280;43284;47.042;15.498;2023-04-27T02:37:25;97368.66;;;5.68;78.60
57442;BME280;43284;47.042;15.498;2023-04-27T02:39:51;97362.03;;;5.58;77.60
57442;BME280;43284;47.042;15.498;2023-04-27T02:42:16;97359.47;;;5.55;78.00
57442;BME280;43284;47.042;15.498;2023-04-27T02:44:42;97359.47;;;5.55;77.50
57442;BME280;43284;47.042;15.498;2023-04-27T02:47:07;97368.13;;;5.55;77.22
57442;BME280;43284;47.042;15.498;2023-04-27T02:49:33;97359.56;;;5.52;76.86
57442;BME280;43284;47.042;15.498;2023-04-27T02:51:59;97357.69;;;5.58;74.23
57442;BME280;43284;47.042;15.498;2023-04-27T02:54:25;97364.91;;;5.46;75.11
57442;BME280;43284;47.042;15.498;2023-04-27T02:56:50;97357.34;;;5.38;74.13
57442;BME280;43284;47.042;15.498;2023-04-27T02:59:16;97359.88;;;5.40;73.49
57442;BME280;43284;47.042;15.498;2023-04-27T03:01:41;97364.19;;;5.41;72.71
57442;BME280;43284;47.042;15.498;2023-04-27T03:04:07;97363.34;;;5.40;72.73
57442;BME280;43284;47.042;15.498;2023-04-27T03:06:33;97360.09;;;5.30;73.00
57442;BME280;43284;47.042;15.498;2023-04-27T03:08:58;97373.19;;;5.26;73.95
57442;BME280;43284;47.042;15.498;2023-04-27T03:11:24;97368.00;;;5.26;73.39
57442;BME280;43284;47.042;15.498;2023-04-27T03:13:49;97366.31;;;5.25;73.44
57442;BME280;43284;47.042;15.498;2023-04-27T03:16:15;97373.22;;;5.24;73.43
57442;BME280;43284;47.042;15.498;2023-04-27T03:18:40;97367.19;;;5.24;73.06
57442;BME280;43284;47.042;15.498;2023-04-27T03:21:12;97379.28;;;5.23;73.41
57442;BME280;43284;47.042;15.498;2023-04-27T03:23:38;97374.09;;;5.23;73.76
57442;BME280;43284;47.042;15.498;2023-04-27T03:26:05;97374.94;;;5.24;73.64
57442;BME280;43284;47.042;15.498;2023-04-27T03:28:31;97373.19;;;5.26;74.52
57442;BME280;43284;47.042;15.498;2023-04-27T03:30:56;97371.44;;;5.26;74.45
57442;BME280;43284;47.042;15.498;2023-04-27T03:33:22;97375.75;;;5.27;74.59
57442;BME280;43284;47.042;15.498;2023-04-27T03:35:55;97378.34;;;5.27;74.24
57442;BME280;43284;47.042;15.498;2023-04-27T03:38:21;97382.63;;;5.27;76.61
57442;BME280;43284;47.042;15.498;2023-04-27T03:40:46;97382.72;;;5.24;77.93
57442;BME280;43284;47.042;15.498;2023-04-27T03:43:12;97388.75;;;5.24;79.25
57442;BME280;43284;47.042;15.498;2023-04-27T03:45:37;97390.63;;;5.18;79.13
57442;BME280;43284;47.042;15.498;2023-04-27T03:48:03;97392.59;;;5.08;79.29
57442;BME280;43284;47.042;15.498;2023-04-27T03:50:29;97392.03;;;4.95;78.50
57442;BME280;43284;47.042;15.498;2023-04-27T03:52:54;97391.91;;;5.00;77.32
57442;BME280;43284;47.042;15.498;2023-04-27T03:55:20;97392.81;;;4.99;77.48
57442;BME280;43284;47.042;15.498;2023-04-27T03:57:46;97387.66;;;4.97;79.44
57442;BME280;43284;47.042;15.498;2023-04-27T04:00:11;97390.25;;;4.97;78.03
57442;BME280;43284;47.042;15.498;2023-04-27T04:02:38;97391.06;;;4.99;77.51
57442;BME280;43284;47.042;15.498;2023-04-27T04:05:04;97385.84;;;5.01;76.54
57442;BME280;43284;47.042;15.498;2023-04-27T04:07:30;97387.59;;;5.00;76.68
57442;BME280;43284;47.042;15.498;2023-04-27T04:09:56;97386.75;;;5.00;77.22
57442;BME280;43284;47.042;15.498;2023-04-27T04:12:21;97390.19;;;5.00;76.94
57442;BME280;43284;47.042;15.498;2023-04-27T04:14:47;97392.91;;;4.94;76.77
57442;BME280;43284;47.042;15.498;2023-04-27T04:17:13;97398.63;;;4.69;76.48
57442;BME280;43284;47.042;15.498;2023-04-27T04:19:39;97396.94;;;4.68;78.40
57442;BME280;43284;47.042;15.498;2023-04-27T04:22:04;97403.91;;;4.63;77.77
57442;BME280;43284;47.042;15.498;2023-04-27T04:24:30;97404.66;;;4.70;77.71
57442;BME280;43284;47.042;15.498;2023-04-27T04:26:55;97401.16;;;4.72;79.14
57442;BME280;43284;47.042;15.498;2023-04-27T04:29:23;97405.31;;;4.80;80.86
57442;BME280;43284;47.042;15.498;2023-04-27T04:31:48;97400.16;;;4.78;79.20
57442;BME280;43284;47.042;15.498;2023-04-27T04:34:17;97413.91;;;4.82;78.42
57442;BME280;43284;47.042;15.498;2023-04-27T04:36:43;97414.75;;;4.82;77.86
57442;BME280;43284;47.042;15.498;2023-04-27T04:39:09;97411.28;;;4.83;78.23
57442;BME280;43284;47.042;15.498;2023-04-27T04:41:36;97411.28;;;4.83;78.38
57442;BME280;43284;47.042;15.498;2023-04-27T04:44:02;97413.09;;;4.80;77.72
57442;BME280;43284;47.042;15.498;2023-04-27T04:46:28;97417.47;;;4.76;79.20
57442;BME280;43284;47.042;15.498;2023-04-27T04:48:54;97416.63;;;4.75;80.15
57442;BME280;43284;47.042;15.498;2023-04-27T04:51:20;97414.03;;;4.75;80.51
57442;BME280;43284;47.042;15.498;2023-04-27T04:53:45;97410.53;;;4.78;81.20
57442;BME280;43284;47.042;15.498;2023-04-27T04:56:12;97415.56;;;4.84;81.57
57442;BME280;43284;47.042;15.498;2023-04-27T04:58:38;97412.72;;;4.97;83.33
57442;BME280;43284;47.042;15.498;2023-04-27T05:01:04;97416.06;;;5.02;82.37
57442;BME280;43284;47.042;15.498;2023-04-27T05:03:31;97421.06;;;5.09;81.95
57442;BME280;43284;47.042;15.498;2023-04-27T05:05:56;97420.09;;;5.13;80.29
57442;BME280;43284;47.042;15.498;2023-04-27T05:08:22;97420.88;;;5.19;79.95
57442;BME280;43284;47.042;15.498;2023-04-27T05:10:49;97426.66;;;5.28;81.03
57442;BME280;43284;47.042;15.498;2023-04-27T05:13:14;97427.41;;;5.33;80.72
57442;BME280;43284;47.042;15.498;2023-04-27T05:15:40;97420.50;;;5.34;80.59
57442;BME280;43284;47.042;15.498;2023-04-27T05:18:05;97428.28;;;5.34;81.19
57442;BME280;43284;47.042;15.498;2023-04-27T05:20:34;97419.56;;;5.36;81.35
57442;BME280;43284;47.042;15.498;2023-04-27T05:23:00;97430.66;;;5.43;82.03
57442;BME280;43284;47.042;15.498;2023-04-27T05:25:29;97427.97;;;5.46;81.49
57442;BME280;43284;47.042;15.498;2023-04-27T05:27:55;97435.63;;;5.51;80.70
57442;BME280;43284;47.042;15.498;2023-04-27T05:30:20;97447.53;;;5.60;80.79
57442;BME280;43284;47.042;15.498;2023-04-27T05:32:46;97439.50;;;5.70;82.08
57442;BME280;43284;47.042;15.498;2023-04-27T05:35:11;97439.31;;;5.78;81.22
57442;BME280;43284;47.042;15.498;2023-04-27T05:37:37;97442.59;;;5.85;80.88
57442;BME280;43284;47.042;15.498;2023-04-27T05:40:03;97442.41;;;5.92;79.97
57442;BME280;43284;47.042;15.498;2023-04-27T05:42:30;97439.63;;;6.02;79.64
57442;BME280;43284;47.042;15.498;2023-04-27T05:44:56;97436.81;;;6.09;79.25
57442;BME280;43284;47.042;15.498;2023-04-27T05:47:21;97435.69;;;6.19;79.31
57442;BME280;43284;47.042;15.498;2023-04-27T05:49:50;97441.47;;;6.29;78.72
57442;BME280;43284;47.042;15.498;2023-04-27T05:52:19;97439.53;;;6.37;78.80
57442;BME280;43284;47.042;15.498;2023-04-27T05:54:46;97439.25;;;6.47;77.63
57442;BME280;43284;47.042;15.498;2023-04-27T05:57:12;97441.66;;;6.54;76.23
57442;BME280;43284;47.042;15.498;2023-04-27T05:59:38;97442.25;;;6.64;75.98
57442;BME280;43284;47.042;15.498;2023-04-27T06:02:06;97448.06;;;6.72;75.26
57442;BME280;43284;47.042;15.498;2023-04-27T06:04:31;97444.31;;;6.83;74.26
57442;BME280;43284;47.042;15.498;2023-04-27T06:06:58;97444.94;;;6.91;72.96
57442;BME280;43284;47.042;15.498;2023-04-27T06:09:24;97459.38;;;7.01;71.76
57442;BME280;43284;47.042;15.498;2023-04-27T06:11:50;97446.19;;;7.07;70.23
57442;BME280;43284;47.042;15.498;2023-04-27T06:14:16;97449.44;;;7.15;68.81
57442;BME280;43284;47.042;15.498;2023-04-27T06:16:42;97451.75;;;7.25;67.75
57442;BME280;43284;47.042;15.498;2023-04-27T06:19:07;97443.66;;;7.34;68.05
57442;BME280;43284;47.042;15.498;2023-04-27T06:21:34;97446.88;;;7.42;66.85
57442;BME280;43284;47.042;15.498;2023-04-27T06:24:00;97458.72;;;7.51;65.28
57442;BME280;43284;47.042;15.498;2023-04-27T06:26:26;97452.53;;;7.55;61.98
57442;BME280;43284;47.042;15.498;2023-04-27T06:28:51;97459.25;;;7.62;62.09
57442;BME280;43284;47.042;15.498;2023-04-27T06:31:17;97456.53;;;7.65;60.01
57442;BME280;43284;47.042;15.498;2023-04-27T06:33:42;97463.25;;;7.72;61.46
57442;BME280;43284;47.042;15.498;2023-04-27T06:36:08;97459.53;;;7.79;61.72
57442;BME280;43284;47.042;15.498;2023-04-27T06:38:33;97457.53;;;7.88;61.57
57442;BME280;43284;47.042;15.498;2023-04-27T06:40:59;97457.41;;;7.92;60.27
57442;BME280;43284;47.042;15.498;2023-04-27T06:43:25;97455.41;;;8.00;60.45
57442;BME280;43284;47.042;15.498;2023-04-27T06:45:50;97443.81;;;8.09;58.45
57442;BME280;43284;47.042;15.498;2023-04-27T06:48:18;97453.00;;;8.19;58.92
57442;BME280;43284;47.042;15.498;2023-04-27T06:50:44;97450.34;;;8.21;58.05
57442;BME280;43284;47.042;15.498;2023-04-27T06:53:09;97448.66;;;8.20;56.70
57442;BME280;43284;47.042;15.498;2023-04-27T06:55:35;97454.56;;;8.25;57.69
57442;BME280;43284;47.042;15.498;2023-04-27T06:58:01;97453.75;;;8.23;56.90
57442;BME280;43284;47.042;15.498;2023-04-27T07:00:27;97454.34;;;8.31;57.31
57442;BME280;43284;47.042;15.498;2023-04-27T07:02:53;97457.75;;;8.33;57.27
57442;BME280;43284;47.042;15.498;2023-04-27T07:05:19;97453.13;;;8.41;57.61
57442;BME280;43284;47.042;15.498;2023-04-27T07:07:44;97451.22;;;8.47;56.73
57442;BME280;43284;47.042;15.498;2023-04-27T07:10:10;97452.59;;;8.57;57.50
57442;BME280;43284;47.042;15.498;2023-04-27T07:12:36;97452.31;;;8.64;55.51
57442;BME280;43284;47.042;15.498;2023-04-27T07:15:03;97449.94;;;8.58;54.59
57442;BME280;43284;47.042;15.498;2023-04-27T07:17:32;97452.31;;;8.64;55.44
57442;BME280;43284;47.042;15.498;2023-04-27T07:19:59;97446.69;;;8.77;56.08
57442;BME280;43284;47.042;15.498;2023-04-27T07:22:25;97453.41;;;8.82;55.75
57442;BME280;43284;47.042;15.498;2023-04-27T07:24:51;97453.13;;;8.90;55.47
57442;BME280;43284;47.042;15.498;2023-04-27T07:27:16;97446.94;;;8.93;54.98
57442;BME280;43284;47.042;15.498;2023-04-27T07:29:42;97446.94;;;8.93;52.86
57442;BME280;43284;47.042;15.498;2023-04-27T07:32:08;97442.56;;;8.93;53.88
57442;BME280;43284;47.042;15.498;2023-04-27T07:34:34;97446.19;;;8.89;53.57
57442;BME280;43284;47.042;15.498;2023-04-27T07:37:00;97442.69;;;8.90;53.34
57442;BME280;43284;47.042;15.498;2023-04-27T07:39:26;97436.88;;;8.83;50.43
57442;BME280;43284;47.042;15.498;2023-04-27T07:41:52;97432.16;;;8.70;50.27
57442;BME280;43284;47.042;15.498;2023-04-27T07:44:18;97433.00;;;8.70;52.22
57442;BME280;43284;47.042;15.498;2023-04-27T07:46:44;97440.38;;;8.82;52.88
57442;BME280;43284;47.042;15.498;2023-04-27T07:49:11;97435.56;;;8.95;53.07
57442;BME280;43284;47.042;15.498;2023-04-27T07:51:38;97430.91;;;9.03;51.40
57442;BME280;43284;47.042;15.498;2023-04-27T07:54:04;97432.63;;;9.03;52.08
57442;BME280;43284;47.042;15.498;2023-04-27T07:56:29;97428.81;;;9.12;51.78
57442;BME280;43284;47.042;15.498;2023-04-27T07:58:55;97435.28;;;9.25;51.64
57442;BME280;43284;47.042;15.498;2023-04-27T08:01:21;97439.31;;;9.34;52.81
57442;BME280;43284;47.042;15.498;2023-04-27T08:03:46;97428.28;;;9.03;48.17
57442;BME280;43284;47.042;15.498;2023-04-27T08:06:12;97434.91;;;9.12;48.80
57442;BME280;43284;47.042;15.498;2023-04-27T08:08:37;97437.78;;;9.28;51.66
57442;BME280;43284;47.042;15.498;2023-04-27T08:11:03;97440.44;;;9.48;53.16
57442;BME280;43284;47.042;15.498;2023-04-27T08:13:28;97431.69;;;9.72;50.28
57442;BME280;43284;47.042;15.498;2023-04-27T08:15:54;97433.91;;;9.60;49.29
57442;BME280;43284;47.042;15.498;2023-04-27T08:18:23;97437.16;;;9.65;51.92
57442;BME280;43284;47.042;15.498;2023-04-27T08:20:49;97432.06;;;9.62;50.15
57442;BME280;43284;47.042;15.498;2023-04-27T08:23:15;97430.94;;;9.47;49.19
57442;BME280;43284;47.042;15.498;2023-04-27T08:25:40;97422.13;;;9.50;50.18
57442;BME280;43284;47.042;15.498;2023-04-27T08:28:06;97427.66;;;9.42;48.67
57442;BME280;43284;47.042;15.498;2023-04-27T08:30:31;97427.91;;;9.79;53.21
57442;BME280;43284;47.042;15.498;2023-04-27T08:32:57;97423.50;;;10.22;52.09
57442;BME280;43284;47.042;15.498;2023-04-27T08:35:22;97430.38;;;10.04;51.60
57442;BME280;43284;47.042;15.498;2023-04-27T08:37:48;97428.84;;;9.98;47.51
57442;BME280;43284;47.042;15.498;2023-04-27T08:40:13;97426.44;;;9.94;48.29
57442;BME280;43284;47.042;15.498;2023-04-27T08:42:51;97424.47;;;9.99;51.01
57442;BME280;43284;47.042;15.498;2023-04-27T08:45:18;97422.78;;;10.18;49.77
57442;BME280;43284;47.042;15.498;2023-04-27T08:47:43;97419.47;;;10.15;50.22
57442;BME280;43284;47.042;15.498;2023-04-27T08:50:10;97420.59;;;10.29;51.94
57442;BME280;43284;47.042;15.498;2023-04-27T08:52:36;97416.19;;;10.50;50.07
57442;BME280;43284;47.042;15.498;2023-04-27T08:55:01;97418.19;;;10.45;50.68
57442;BME280;43284;47.042;15.498;2023-04-27T08:57:28;97411.38;;;10.41;49.09
57442;BME280;43284;47.042;15.498;2023-04-27T08:59:58;97410.19;;;10.48;48.52
57442;BME280;43284;47.042;15.498;2023-04-27T09:02:36;97407.09;;;10.59;48.53
57442;BME280;43284;47.042;15.498;2023-04-27T09:05:02;97408.03;;;10.77;51.64
57442;BME280;43284;47.042;15.498;2023-04-27T09:07:28;97407.69;;;10.85;50.57
57442;BME280;43284;47.042;15.498;2023-04-27T09:10:02;97403.31;;;11.04;48.65
57442;BME280;43284;47.042;15.498;2023-04-27T09:12:28;97408.66;;;11.01;50.19
57442;BME280;43284;47.042;15.498;2023-04-27T09:17:27;97399.16;;;11.37;49.33
57442;BME280;43284;47.042;15.498;2023-04-27T09:20:12;97397.25;;;11.21;47.51
57442;BME280;43284;47.042;15.498;2023-04-27T09:22:46;97400.16;;;11.34;49.82
57442;BME280;43284;47.042;15.498;2023-04-27T09:25:28;97397.25;;;11.21;47.83
57442;BME280;43284;47.042;15.498;2023-04-27T09:27:56;97395.59;;;11.20;48.35
57442;BME280;43284;47.042;15.498;2023-04-27T09:30:23;97391.78;;;11.45;48.04
57442;BME280;43284;47.042;15.498;2023-04-27T09:32:51;97389.03;;;11.48;50.43
57442;BME280;43284;47.042;15.498;2023-04-27T09:35:35;97385.34;;;11.69;49.37
57442;BME280;43284;47.042;15.498;2023-04-27T09:38:01;97382.81;;;11.68;51.84
57442;BME280;43284;47.042;15.498;2023-04-27T09:40:27;97377.16;;;11.94;51.29
57442;BME280;43284;47.042;15.498;2023-04-27T09:42:59;97373.53;;;11.97;47.07
57442;BME280;43284;47.042;15.498;2023-04-27T09:45:28;97373.19;;;12.21;49.52
57442;BME280;43284;47.042;15.498;2023-04-27T09:47:54;97369.72;;;11.85;47.32
57442;BME280;43284;47.042;15.498;2023-04-27T09:50:19;97365.44;;;12.02;48.96
57442;BME280;43284;47.042;15.498;2023-04-27T09:52:46;97365.41;;;12.19;48.43
57442;BME280;43284;47.042;15.498;2023-04-27T09:55:26;97358.09;;;12.42;50.91
57442;BME280;43284;47.042;15.498;2023-04-27T09:58:03;97357.66;;;12.67;50.59
57442;BME280;43284;47.042;15.498;2023-04-27T10:03:21;97356.84;;;12.82;49.06
57442;BME280;43284;47.042;15.498;2023-04-27T10:06:34;97356.31;;;13.07;48.42
57442;BME280;43284;47.042;15.498;2023-04-27T10:09:07;97342.09;;;13.43;49.40
57442;BME280;43284;47.042;15.498;2023-04-27T10:11:37;97349.09;;;13.58;47.20
57442;BME280;43284;47.042;15.498;2023-04-27T10:14:07;97344.50;;;13.32;46.15
57442;BME280;43284;47.042;15.498;2023-04-27T10:19:09;97340.16;;;13.31;45.83
57442;BME280;43284;47.042;15.498;2023-04-27T10:21:35;97347.09;;;13.00;46.61
57442;BME280;43284;47.042;15.498;2023-04-27T10:24:07;97346.09;;;12.87;47.74
57442;BME280;43284;47.042;15.498;2023-04-27T10:26:33;97337.56;;;12.50;47.73
57442;BME280;43284;47.042;15.498;2023-04-27T10:29:06;97340.97;;;12.52;46.32
57442;BME280;43284;47.042;15.498;2023-04-27T10:31:32;97346.16;;;12.20;46.43
57442;BME280;43284;47.042;15.498;2023-04-27T10:34:24;97340.00;;;12.37;48.34
57442;BME280;43284;47.042;15.498;2023-04-27T10:37:12;97337.25;;;12.56;48.12
57442;BME280;43284;47.042;15.498;2023-04-27T10:39:42;97333.53;;;12.92;51.40
57442;BME280;43284;47.042;15.498;2023-04-27T10:42:08;97324.75;;;12.77;48.61
57442;BME280;43284;47.042;15.498;2023-04-27T10:44:35;97321.72;;;12.85;49.32
57442;BME280;43284;47.042;15.498;2023-04-27T10:47:12;97318.19;;;13.48;48.73
57442;BME280;43284;47.042;15.498;2023-04-27T10:49:39;97313.50;;;13.83;48.39
57442;BME280;43284;47.042;15.498;2023-04-27T10:52:05;97313.91;;;14.06;48.12
57442;BME280;43284;47.042;15.498;2023-04-27T10:54:32;97308.31;;;14.26;45.99
57442;BME280;43284;47.042;15.498;2023-04-27T10:57:05;97309.63;;;13.74;44.43
57442;BME280;43284;47.042;15.498;2023-04-27T10:59:32;97305.38;;;14.02;47.05
57442;BME280;43284;47.042;15.498;2023-04-27T11:01:58;97308.28;;;14.12;44.59
57442;BME280;43284;47.042;15.498;2023-04-27T11:04:34;97304.44;;;14.32;48.41
57442;BME280;43284;47.042;15.498;2023-04-27T11:07:00;97309.31;;;14.09;44.61
57442;BME280;43284;47.042;15.498;2023-04-27T11:09:28;97310.25;;;13.94;44.81
57442;BME280;43284;47.042;15.498;2023-04-27T11:11:54;97306.59;;;14.11;48.05
57442;BME280;43284;47.042;15.498;2023-04-27T11:14:20;97315.09;;;14.59;45.10
57442;BME280;43284;47.042;15.498;2023-04-27T11:16:48;97299.25;;;14.73;45.87
57442;BME280;43284;47.042;15.498;2023-04-27T11:19:14;97301.88;;;14.88;44.33
57442;BME280;43284;47.042;15.498;2023-04-27T11:21:40;97304.44;;;14.46;42.38
57442;BME280;43284;47.042;15.498;2023-04-27T11:24:07;97299.38;;;14.72;42.92
57442;BME280;43284;47.042;15.498;2023-04-27T11:26:34;97301.81;;;15.02;46.60
57442;BME280;43284;47.042;15.498;2023-04-27T11:29:09;97311.84;;;14.54;43.50
57442;BME280;43284;47.042;15.498;2023-04-27T11:31:41;97314.47;;;14.54;43.63
57442;BME280;43284;47.042;15.498;2023-04-27T11:34:08;97304.16;;;14.51;44.67
57442;BME280;43284;47.042;15.498;2023-04-27T11:36:40;97298.81;;;14.38;44.55
57442;BME280;43284;47.042;15.498;2023-04-27T11:39:05;97301.53;;;14.51;43.19
57442;BME280;43284;47.042;15.498;2023-04-27T11:41:35;97299.19;;;14.46;44.46
57442;BME280;43284;47.042;15.498;2023-04-27T11:44:08;97300.22;;;14.15;43.64
57442;BME280;43284;47.042;15.498;2023-04-27T11:46:38;97297.13;;;14.37;45.31
57442;BME280;43284;47.042;15.498;2023-04-27T11:49:06;97303.78;;;14.28;44.93
57442;BME280;43284;47.042;15.498;2023-04-27T11:51:35;97305.81;;;13.94;44.02
57442;BME280;43284;47.042;15.498;2023-04-27T11:54:03;97304.69;;;13.98;45.35
57442;BME280;43284;47.042;15.498;2023-04-27T11:56:37;97302.22;;;13.81;44.49
57442;BME280;43284;47.042;15.498;2023-04-27T11:59:03;97297.53;;;13.86;44.93
57442;BME280;43284;47.042;15.498;2023-04-27T12:01:33;97299.00;;;13.62;44.79
57442;BME280;43284;47.042;15.498;2023-04-27T12:04:00;97300.72;;;13.77;46.08
57442;BME280;43284;47.042;15.498;2023-04-27T12:06:27;97304.59;;;13.86;45.80
57442;BME280;43284;47.042;15.498;2023-04-27T12:08:56;97303.69;;;13.71;44.99
57442;BME280;43284;47.042;15.498;2023-04-27T12:11:23;97317.44;;;13.76;45.36
57442;BME280;43284;47.042;15.498;2023-04-27T12:13:50;97309.84;;;13.86;45.32
57442;BME280;43284;47.042;15.498;2023-04-27T12:16:16;97309.72;;;13.73;45.42
57442;BME280;43284;47.042;15.498;2023-04-27T12:18:42;97308.84;;;13.58;46.39
57442;BME280;43284;47.042;15.498;2023-04-27T12:21:07;97313.84;;;13.77;47.17
57442;BME280;43284;47.042;15.498;2023-04-27T12:23:34;97318.06;;;13.65;45.21
57442;BME280;43284;47.042;15.498;2023-04-27T12:26:00;97316.19;;;13.67;45.50
57442;BME280;43284;47.042;15.498;2023-04-27T12:28:26;97310.59;;;13.88;45.57
57442;BME280;43284;47.042;15.498;2023-04-27T12:30:51;97301.34;;;14.11;45.40
57442;BME280;43284;47.042;15.498;2023-04-27T12:33:17;97294.09;;;14.14;43.91
57442;BME280;43284;47.042;15.498;2023-04-27T12:35:42;97303.69;;;14.30;44.32
57442;BME280;43284;47.042;15.498;2023-04-27T12:38:08;97296.91;;;14.54;45.35
57442;BME280;43284;47.042;15.498;2023-04-27T12:40:33;97291.13;;;14.63;44.20
57442;BME280;43284;47.042;15.498;2023-04-27T12:42:59;97297.75;;;14.83;45.35
57442;BME280;43284;47.042;15.498;2023-04-27T12:45:25;97295.91;;;14.98;45.66
57442;BME280;43284;47.042;15.498;2023-04-27T12:47:51;97284.41;;;15.14;45.14
57442;BME280;43284;47.042;15.498;2023-04-27T12:50:19;97291.47;;;15.26;44.36
57442;BME280;43284;47.042;15.498;2023-04-27T12:52:44;97290.50;;;15.14;43.68
57442;BME280;43284;47.042;15.498;2023-04-27T12:55:10;97289.31;;;15.33;43.37
57442;BME280;43284;47.042;15.498;2023-04-27T12:57:36;97292.31;;;15.54;44.43
57442;BME280;43284;47.042;15.498;2023-04-27T13:00:02;97283.09;;;15.34;40.61
57442;BME280;43284;47.042;15.498;2023-04-27T13:02:29;97277.88;;;15.47;43.06
57442;BME280;43284;47.042;15.498;2023-04-27T13:04:54;97279.88;;;15.56;42.39